Time;durP1;ratioP1;P1;durP2;ratioP2;P2;SDS_P1;SDS_P2;PMS_P1;PMS_P2;Temp;Humidity;BMP_temperature;BMP_pressure;BME280_temperature;BME280_humidity;BME280_pressure;Samples;Min_cycle;Max_cycle;Signal;HPM_P1;HPM_P2
2022/06/19 00:01:36;;;;;;;1.90;1.87;;;24.60;68.40;;;;;;5066922;28;43901;-69
2022/06/19 00:04:04;;;;;;;1.80;1.80;;;24.80;68.00;;;;;;5065647;28;43964;-70
2022/06/19 00:06:34;;;;;;;2.00;1.90;;;24.90;67.60;;;;;;5067705;28;43855;-70
2022/06/19 00:09:02;;;;;;;1.80;1.80;;;25.00;67.30;;;;;;5066693;28;44791;-70
2022/06/19 00:11:30;;;;;;;1.83;1.83;;;25.20;66.90;;;;;;5066478;28;43864;-69
2022/06/19 00:14:00;;;;;;;1.95;1.95;;;25.30;66.30;;;;;;5066580;28;43828;-69
2022/06/19 00:16:28;;;;;;;1.80;1.80;;;25.40;66.10;;;;;;5067172;28;43971;-69
2022/06/19 00:18:56;;;;;;;1.67;1.67;;;25.40;65.70;;;;;;5066259;28;44021;-69
2022/06/19 00:21:24;;;;;;;1.57;1.57;;;25.30;65.70;;;;;;5071481;28;43792;-69
2022/06/19 00:23:52;;;;;;;2.03;2.03;;;25.20;66.20;;;;;;5073212;28;44023;-69
2022/06/19 00:26:20;;;;;;;1.90;1.90;;;25.00;66.90;;;;;;5073635;28;44236;-69
2022/06/19 00:28:48;;;;;;;1.70;1.70;;;24.70;67.40;;;;;;5071605;28;47111;-69
2022/06/19 00:31:17;;;;;;;1.70;1.70;;;24.50;68.10;;;;;;5072955;28;43580;-69
2022/06/19 00:33:46;;;;;;;1.70;1.70;;;24.40;68.60;;;;;;5071604;28;44032;-71
2022/06/19 00:36:14;;;;;;;2.07;1.97;;;24.30;69.00;;;;;;5073785;28;43301;-69
2022/06/19 00:38:42;;;;;;;1.83;1.80;;;24.10;69.30;;;;;;5072812;28;43988;-69
2022/06/19 00:41:10;;;;;;;1.70;1.70;;;24.10;69.60;;;;;;5072838;28;43915;-68
2022/06/19 00:43:53;;;;;;;1.87;1.87;;;24.00;69.80;;;;;;5071338;28;43882;-69
2022/06/19 00:46:50;;;;;;;1.53;1.53;;;23.90;70.80;;;;;;5073368;28;44034;-70
2022/06/19 00:49:20;;;;;;;1.57;1.57;;;23.90;70.30;;;;;;5072758;28;43839;-69
2022/06/19 00:51:59;;;;;;;1.60;1.60;;;23.80;70.30;;;;;;5072484;28;44308;-71
2022/06/19 00:54:27;;;;;;;1.70;1.70;;;23.80;71.20;;;;;;5073229;28;43872;-70
2022/06/19 00:56:55;;;;;;;1.60;1.60;;;23.80;70.60;;;;;;5073517;28;43529;-69
2022/06/19 00:59:23;;;;;;;1.80;1.80;;;23.70;70.60;;;;;;5072472;28;44067;-69
2022/06/19 01:01:54;;;;;;;1.70;1.70;;;23.70;70.60;;;;;;5072987;28;44059;-71
2022/06/19 01:04:23;;;;;;;1.60;1.60;;;23.70;71.40;;;;;;5072976;28;43506;-70
2022/06/19 01:06:51;;;;;;;1.80;1.80;;;23.80;71.30;;;;;;5072932;28;43991;-70
2022/06/19 01:09:19;;;;;;;1.80;1.80;;;24.00;70.70;;;;;;5072600;28;44845;-70
2022/06/19 01:11:47;;;;;;;2.20;2.10;;;24.20;70.00;;;;;;5072449;28;43923;-71
2022/06/19 01:14:18;;;;;;;1.60;1.60;;;24.40;69.20;;;;;;5072600;28;43947;-69
2022/06/19 01:16:46;;;;;;;1.90;1.90;;;24.60;68.70;;;;;;5073119;28;44017;-70
2022/06/19 01:19:20;;;;;;;1.60;1.60;;;24.80;68.20;;;;;;5072315;28;43989;-71
2022/06/19 01:21:49;;;;;;;1.60;1.60;;;24.90;67.70;;;;;;5072702;28;44002;-71
2022/06/19 01:24:22;;;;;;;1.60;1.60;;;25.00;67.30;;;;;;5072742;28;43929;-70
2022/06/19 01:26:53;;;;;;;1.80;1.80;;;25.10;67.00;;;;;;5072700;28;44204;-70
2022/06/19 01:29:20;;;;;;;1.70;1.70;;;25.10;66.60;;;;;;5072357;28;44695;-71
2022/06/19 01:31:49;;;;;;;1.70;1.70;;;25.10;66.90;;;;;;5070790;28;44042;-71
2022/06/19 01:34:32;;;;;;;1.70;1.70;;;24.90;67.30;;;;;;5069101;28;43467;-70
2022/06/19 01:37:03;;;;;;;1.67;1.67;;;24.70;67.70;;;;;;5069573;28;43999;-70
2022/06/19 01:39:34;;;;;;;1.50;1.50;;;24.50;68.30;;;;;;5069196;28;43866;-71
2022/06/19 01:42:05;;;;;;;1.60;1.60;;;24.30;68.80;;;;;;5068964;28;43998;-71
2022/06/19 01:44:33;;;;;;;1.57;1.57;;;24.20;69.20;;;;;;5069413;28;43435;-70
2022/06/19 01:47:01;;;;;;;1.70;1.70;;;24.10;69.50;;;;;;5069516;28;43969;-71
2022/06/19 01:49:30;;;;;;;1.70;1.70;;;24.00;69.70;;;;;;5068339;28;43843;-70
2022/06/19 01:51:58;;;;;;;1.50;1.50;;;24.00;70.00;;;;;;5068813;28;43944;-71
2022/06/19 01:54:29;;;;;;;1.70;1.70;;;23.90;70.10;;;;;;5068905;28;43473;-72
2022/06/19 01:56:57;;;;;;;1.50;1.50;;;23.90;70.30;;;;;;5069422;28;43873;-71
2022/06/19 01:59:28;;;;;;;1.80;1.80;;;23.80;70.40;;;;;;5067213;28;45855;-71
2022/06/19 02:01:56;;;;;;;1.60;1.60;;;23.80;70.50;;;;;;5068713;28;43977;-70
2022/06/19 02:04:24;;;;;;;1.80;1.80;;;23.70;70.60;;;;;;5068622;28;43912;-70
2022/06/19 02:06:56;;;;;;;1.77;1.77;;;23.70;70.60;;;;;;5068995;28;44106;-71
2022/06/19 02:09:24;;;;;;;1.50;1.50;;;23.70;70.60;;;;;;5068502;28;43930;-71
2022/06/19 02:11:55;;;;;;;1.60;1.50;;;23.70;70.70;;;;;;5068558;28;43385;-71
2022/06/19 02:14:23;;;;;;;1.73;1.73;;;23.70;71.60;;;;;;5068171;28;43387;-70
2022/06/19 02:16:53;;;;;;;1.47;1.47;;;23.80;71.30;;;;;;5062686;28;43944;-69
2022/06/19 02:19:24;;;;;;;1.40;1.40;;;24.00;70.70;;;;;;5068245;28;44153;-72
2022/06/19 02:21:53;;;;;;;1.57;1.57;;;24.20;70.00;;;;;;5068287;28;44029;-70
2022/06/19 02:24:23;;;;;;;1.60;1.60;;;24.40;69.30;;;;;;5068435;28;43852;-70
2022/06/19 02:26:52;;;;;;;1.77;1.77;;;24.60;68.70;;;;;;5068802;28;43395;-71
2022/06/19 02:29:20;;;;;;;1.63;1.60;;;24.80;68.30;;;;;;5066690;28;47104;-70
2022/06/19 02:31:53;;;;;;;1.60;1.60;;;24.90;67.80;;;;;;5068273;28;44036;-70
2022/06/19 02:34:25;;;;;;;1.33;1.33;;;25.00;67.40;;;;;;5068089;28;43386;-70
2022/06/19 02:36:55;;;;;;;1.63;1.63;;;25.10;67.10;;;;;;5068553;28;44481;-71
2022/06/19 02:39:30;;;;;;;1.60;1.60;;;25.10;66.90;;;;;;5068264;28;43871;-69
2022/06/19 02:42:11;;;;;;;1.50;1.50;;;25.00;67.20;;;;;;5068242;28;43975;-71
2022/06/19 02:44:40;;;;;;;1.50;1.50;;;24.80;68.20;;;;;;5066792;28;43982;-70
2022/06/19 02:47:11;;;;;;;1.40;1.40;;;24.60;68.00;;;;;;5068397;28;43474;-70
2022/06/19 02:49:39;;;;;;;1.40;1.40;;;24.50;68.60;;;;;;5066038;28;46087;-71
2022/06/19 02:52:08;;;;;;;1.40;1.40;;;24.30;69.00;;;;;;5067643;28;43909;-71
2022/06/19 02:54:36;;;;;;;1.60;1.60;;;24.20;69.40;;;;;;5067761;28;43382;-69
2022/06/19 02:57:04;;;;;;;1.40;1.40;;;24.10;69.60;;;;;;5068345;28;43901;-71
2022/06/19 02:59:33;;;;;;;1.40;1.40;;;24.00;69.80;;;;;;5061120;28;43866;-71
2022/06/19 03:02:01;;;;;;;1.60;1.60;;;23.90;69.90;;;;;;5060034;28;43945;-70
2022/06/19 03:04:33;;;;;;;1.63;1.60;;;23.90;70.20;;;;;;5061361;28;44249;-70
2022/06/19 03:07:01;;;;;;;1.50;1.50;;;23.90;70.40;;;;;;5060652;28;43929;-70
2022/06/19 03:09:29;;;;;;;1.60;1.60;;;23.80;70.40;;;;;;5067646;28;43759;-70
2022/06/19 03:11:57;;;;;;;1.90;1.90;;;23.80;70.50;;;;;;5067529;28;43898;-70
2022/06/19 03:14:27;;;;;;;1.53;1.53;;;23.70;70.50;;;;;;5067278;28;43472;-72
2022/06/19 03:16:55;;;;;;;1.60;1.60;;;23.70;70.60;;;;;;5067732;28;44010;-70
2022/06/19 03:19:23;;;;;;;1.60;1.60;;;23.70;70.70;;;;;;5067308;28;44075;-70
2022/06/19 03:21:54;;;;;;;1.60;1.60;;;23.70;70.80;;;;;;5065787;28;45735;-71
2022/06/19 03:24:26;;;;;;;1.40;1.40;;;23.80;71.60;;;;;;5067557;28;43980;-69
2022/06/19 03:26:54;;;;;;;1.50;1.50;;;23.90;71.40;;;;;;5062230;28;43470;-70
2022/06/19 03:29:24;;;;;;;1.60;1.60;;;24.00;70.60;;;;;;5067317;28;43880;-70
2022/06/19 03:31:52;;;;;;;1.60;1.60;;;24.30;70.00;;;;;;5067334;28;43982;-70
2022/06/19 03:34:20;;;;;;;1.50;1.50;;;24.50;69.30;;;;;;5067809;28;43827;-71
2022/06/19 03:36:48;;;;;;;1.50;1.50;;;24.70;68.70;;;;;;5067754;28;43985;-70
2022/06/19 03:39:17;;;;;;;1.53;1.53;;;24.80;68.20;;;;;;5065512;28;47232;-70
2022/06/19 03:41:46;;;;;;;1.60;1.60;;;24.90;67.80;;;;;;5067306;28;44270;-69
2022/06/19 03:44:14;;;;;;;1.50;1.50;;;25.00;67.40;;;;;;5065932;28;44002;-71
2022/06/19 03:46:42;;;;;;;1.50;1.50;;;25.10;67.20;;;;;;5067721;28;43974;-71
2022/06/19 03:49:10;;;;;;;1.60;1.60;;;25.10;67.80;;;;;;5066935;28;43956;-70
2022/06/19 03:51:38;;;;;;;1.70;1.70;;;25.00;67.20;;;;;;5065611;28;45994;-71
2022/06/19 03:54:07;;;;;;;1.57;1.57;;;24.80;67.60;;;;;;5067193;28;43874;-71
2022/06/19 03:56:36;;;;;;;1.47;1.47;;;24.70;67.90;;;;;;5067116;28;43960;-70
2022/06/19 03:59:11;;;;;;;1.70;1.67;;;24.50;68.50;;;;;;5066976;28;43938;-71
2022/06/19 04:01:40;;;;;;;1.80;1.80;;;24.40;69.00;;;;;;5067177;28;43951;-69
2022/06/19 04:04:08;;;;;;;1.57;1.57;;;24.20;69.30;;;;;;5066892;28;43422;-70
2022/06/19 04:06:40;;;;;;;1.73;1.73;;;24.10;69.60;;;;;;5067442;28;43846;-71
2022/06/19 04:09:09;;;;;;;1.83;1.83;;;24.00;69.70;;;;;;5066847;28;45098;-70
2022/06/19 04:11:38;;;;;;;1.70;1.70;;;24.00;70.00;;;;;;5067132;28;43755;-70
2022/06/19 04:14:07;;;;;;;1.83;1.70;;;23.90;70.10;;;;;;5066953;28;43996;-71
2022/06/19 04:16:35;;;;;;;1.77;1.77;;;23.90;70.30;;;;;;5067441;28;43419;-71
2022/06/19 04:19:06;;;;;;;1.90;1.80;;;23.90;70.40;;;;;;5066757;28;44621;-70
2022/06/19 04:21:35;;;;;;;1.60;1.60;;;23.80;71.20;;;;;;5066869;28;44410;-70
2022/06/19 04:24:06;;;;;;;1.70;1.70;;;23.80;70.50;;;;;;5066958;28;43994;-70
2022/06/19 04:26:35;;;;;;;1.67;1.67;;;23.80;70.60;;;;;;5067383;28;43994;-71
2022/06/19 04:29:05;;;;;;;1.77;1.77;;;23.80;70.60;;;;;;5066690;28;43949;-71
2022/06/19 04:31:33;;;;;;;1.73;1.73;;;23.80;70.70;;;;;;5066790;28;44034;-71
2022/06/19 04:34:01;;;;;;;1.70;1.70;;;23.80;71.60;;;;;;5067090;28;43889;-71
2022/06/19 04:36:29;;;;;;;1.53;1.53;;;23.90;71.40;;;;;;5065434;28;44177;-71
2022/06/19 04:38:58;;;;;;;1.60;1.60;;;24.10;70.80;;;;;;5066603;28;44037;-72
2022/06/19 04:41:27;;;;;;;1.70;1.70;;;24.30;70.20;;;;;;5066377;28;44120;-70
2022/06/19 04:43:55;;;;;;;1.50;1.50;;;24.50;69.40;;;;;;5059956;28;44010;-72
2022/06/19 04:46:24;;;;;;;1.70;1.70;;;24.70;68.80;;;;;;5060178;28;43903;-70
2022/06/19 04:48:52;;;;;;;1.60;1.60;;;24.80;68.30;;;;;;5059815;28;43937;-70
2022/06/19 04:51:20;;;;;;;1.60;1.60;;;24.90;68.00;;;;;;5059844;28;43902;-72
2022/06/19 04:53:48;;;;;;;1.80;1.80;;;25.00;67.70;;;;;;5060006;28;43972;-70
2022/06/19 04:56:18;;;;;;;1.73;1.73;;;25.10;67.30;;;;;;5060536;28;43888;-71
2022/06/19 04:58:46;;;;;;;1.80;1.80;;;25.10;67.20;;;;;;5058518;28;45402;-71
2022/06/19 05:01:23;;;;;;;1.90;1.90;;;25.00;67.20;;;;;;5066074;28;43751;-70
2022/06/19 05:03:53;;;;;;;1.90;1.90;;;24.80;67.50;;;;;;5066152;28;43974;-71
2022/06/19 05:06:21;;;;;;;1.63;1.63;;;24.70;68.00;;;;;;5066760;28;44396;-70
2022/06/19 05:08:49;;;;;;;1.70;1.70;;;24.50;68.40;;;;;;5069219;28;44051;-70
2022/06/19 05:11:18;;;;;;;1.87;1.87;;;24.40;69.00;;;;;;5069370;28;43878;-72
2022/06/19 05:13:46;;;;;;;1.80;1.80;;;24.30;69.40;;;;;;5069532;28;43383;-69
2022/06/19 05:16:15;;;;;;;1.87;1.87;;;24.20;69.70;;;;;;5069919;28;43939;-70
2022/06/19 05:18:43;;;;;;;1.70;1.70;;;24.10;69.90;;;;;;5069337;28;43920;-71
2022/06/19 05:21:12;;;;;;;1.50;1.50;;;24.00;70.00;;;;;;5069614;28;43396;-70
2022/06/19 05:23:42;;;;;;;1.70;1.70;;;24.00;70.30;;;;;;5069809;28;44050;-70
2022/06/19 05:26:11;;;;;;;1.70;1.70;;;24.00;70.50;;;;;;5069977;28;43881;-71
2022/06/19 05:28:40;;;;;;;1.70;1.70;;;23.90;70.50;;;;;;5069306;28;44077;-71
2022/06/19 05:31:10;;;;;;;2.20;2.10;;;23.90;70.70;;;;;;5067706;28;44354;-71
2022/06/19 05:33:38;;;;;;;1.93;1.83;;;23.90;70.70;;;;;;5069319;28;44014;-72
2022/06/19 05:36:09;;;;;;;1.90;1.80;;;23.90;70.80;;;;;;5069928;28;43454;-70
2022/06/19 05:38:38;;;;;;;1.80;1.80;;;23.80;70.80;;;;;;5069133;28;43948;-70
2022/06/19 05:41:06;;;;;;;1.77;1.77;;;23.80;70.80;;;;;;5069046;28;43419;-70
2022/06/19 05:43:35;;;;;;;1.70;1.70;;;23.80;71.70;;;;;;5069348;28;43951;-70
2022/06/19 05:46:06;;;;;;;1.60;1.60;;;23.90;71.50;;;;;;5069524;28;43453;-70
2022/06/19 05:48:36;;;;;;;1.53;1.53;;;24.10;70.80;;;;;;5068909;28;43852;-71
2022/06/19 05:51:08;;;;;;;1.60;1.60;;;24.30;70.80;;;;;;5068939;28;43957;-70
2022/06/19 05:53:39;;;;;;;1.90;1.80;;;24.50;69.50;;;;;;5069173;28;43877;-70
2022/06/19 05:56:07;;;;;;;1.60;1.60;;;24.70;68.90;;;;;;5069637;28;43351;-72
2022/06/19 05:58:35;;;;;;;1.70;1.70;;;24.80;68.40;;;;;;5068802;28;43883;-72
2022/06/19 06:01:03;;;;;;;1.53;1.53;;;24.90;68.00;;;;;;5068919;28;44149;-70
2022/06/19 06:03:32;;;;;;;1.70;1.70;;;25.00;67.60;;;;;;5069223;28;43999;-70
2022/06/19 06:06:00;;;;;;;1.60;1.60;;;25.10;67.30;;;;;;5069587;28;43992;-71
2022/06/19 06:08:28;;;;;;;1.50;1.50;;;25.10;67.20;;;;;;5068877;28;44003;-71
2022/06/19 06:10:57;;;;;;;1.60;1.60;;;25.00;67.30;;;;;;5068564;28;44101;-71
2022/06/19 06:13:29;;;;;;;1.80;1.80;;;24.90;67.70;;;;;;5068932;28;43870;-71
2022/06/19 06:15:57;;;;;;;1.93;1.93;;;24.70;68.00;;;;;;5069457;28;43943;-71
2022/06/19 06:18:25;;;;;;;1.70;1.70;;;24.50;68.60;;;;;;5068128;28;43847;-70
2022/06/19 06:20:55;;;;;;;1.60;1.60;;;24.40;69.10;;;;;;5061876;28;43868;-70
2022/06/19 06:23:23;;;;;;;1.70;1.70;;;24.30;69.40;;;;;;5062306;28;43920;-71
2022/06/19 06:25:59;;;;;;;1.57;1.57;;;24.20;69.70;;;;;;5062712;28;43936;-71
2022/06/19 06:28:27;;;;;;;1.80;1.80;;;24.10;70.00;;;;;;5066941;28;44125;-70
2022/06/19 06:30:56;;;;;;;1.60;1.60;;;24.00;70.10;;;;;;5068293;28;43898;-71
2022/06/19 06:33:24;;;;;;;1.90;1.80;;;24.00;70.30;;;;;;5068379;28;43370;-70
2022/06/19 06:35:52;;;;;;;1.80;1.80;;;23.90;70.40;;;;;;5068903;28;43918;-71
2022/06/19 06:38:20;;;;;;;2.00;2.00;;;23.90;70.50;;;;;;5068004;28;44086;-72
2022/06/19 06:40:48;;;;;;;4.93;4.60;;;23.90;70.60;;;;;;5068165;28;43896;-70
2022/06/19 06:43:17;;;;;;;5.63;5.20;;;23.90;70.80;;;;;;5068167;28;43436;-70
2022/06/19 06:45:45;;;;;;;4.63;4.33;;;23.90;70.80;;;;;;5068731;28;43420;-69
2022/06/19 06:48:13;;;;;;;3.87;3.67;;;23.80;70.80;;;;;;5067596;28;43833;-71
2022/06/19 06:50:41;;;;;;;3.97;3.73;;;23.80;70.90;;;;;;5067931;28;43962;-70
2022/06/19 06:53:09;;;;;;;3.53;3.43;;;23.80;71.70;;;;;;5068257;28;43387;-70
2022/06/19 06:55:38;;;;;;;3.63;3.33;;;23.90;71.40;;;;;;5068220;28;44058;-71
2022/06/19 06:58:06;;;;;;;3.33;3.13;;;24.10;71.50;;;;;;5067891;28;43770;-70
2022/06/19 07:00:37;;;;;;;3.20;3.10;;;24.30;70.10;;;;;;5068085;28;43934;-71
2022/06/19 07:03:05;;;;;;;3.20;3.00;;;24.50;69.50;;;;;;5068083;28;43909;-72
2022/06/19 07:05:33;;;;;;;3.60;3.40;;;24.70;69.60;;;;;;5066949;28;44003;-70
2022/06/19 07:08:02;;;;;;;3.50;3.30;;;24.80;68.40;;;;;;5067825;28;43971;-69
2022/06/19 07:10:30;;;;;;;3.70;3.50;;;25.00;68.10;;;;;;5066009;28;44412;-70
2022/06/19 07:12:58;;;;;;;3.87;3.67;;;25.00;67.60;;;;;;5067955;28;43916;-72
2022/06/19 07:15:26;;;;;;;3.90;3.60;;;25.10;67.30;;;;;;5068228;28;43905;-70
2022/06/19 07:17:55;;;;;;;3.20;3.10;;;25.20;67.00;;;;;;5065929;28;44045;-70
2022/06/19 07:20:23;;;;;;;3.47;3.27;;;25.20;67.00;;;;;;5067560;28;44121;-70
2022/06/19 07:22:51;;;;;;;3.30;3.20;;;25.10;67.20;;;;;;5067629;28;44029;-71
2022/06/19 07:25:20;;;;;;;3.50;3.30;;;24.90;67.60;;;;;;5067781;28;44099;-71
2022/06/19 07:27:48;;;;;;;2.87;2.77;;;24.70;68.00;;;;;;5067573;28;43952;-70
2022/06/19 07:30:17;;;;;;;2.83;2.73;;;24.60;68.70;;;;;;5066652;28;43949;-71
2022/06/19 07:32:45;;;;;;;2.87;2.77;;;24.40;69.10;;;;;;5067420;28;43988;-72
2022/06/19 07:35:15;;;;;;;2.87;2.77;;;24.30;69.30;;;;;;5067959;28;43411;-71
2022/06/19 07:37:43;;;;;;;2.77;2.67;;;24.20;69.60;;;;;;5065728;28;46152;-70
2022/06/19 07:40:15;;;;;;;2.70;2.60;;;24.10;69.90;;;;;;5067364;28;43379;-71
2022/06/19 07:42:43;;;;;;;2.70;2.60;;;24.00;70.10;;;;;;5067380;28;43369;-70
2022/06/19 07:45:15;;;;;;;2.30;2.30;;;24.00;70.30;;;;;;5067816;28;44062;-70
2022/06/19 07:50:30;;;;;;;2.53;2.53;;;23.90;70.60;;;;;;5067504;28;43964;-71
2022/06/19 07:52:58;;;;;;;2.70;2.70;;;23.90;70.80;;;;;;5060765;28;44120;-71
2022/06/19 07:55:27;;;;;;;2.80;2.70;;;23.90;70.80;;;;;;5059579;28;43975;-71
2022/06/19 07:57:55;;;;;;;2.47;2.47;;;23.80;70.80;;;;;;5060492;28;43996;-71
2022/06/19 08:00:28;;;;;;;2.70;2.60;;;23.80;70.80;;;;;;5067234;28;43931;-71
2022/06/19 08:02:56;;;;;;;2.83;2.63;;;23.80;71.50;;;;;;5061122;28;43975;-71
2022/06/19 08:05:25;;;;;;;2.90;2.80;;;23.90;71.60;;;;;;5067113;28;44229;-69
2022/06/19 08:07:55;;;;;;;2.83;2.73;;;24.00;71.00;;;;;;5066841;28;43915;-72
2022/06/19 08:10:25;;;;;;;2.43;2.43;;;24.20;70.50;;;;;;5066969;28;43943;-70
2022/06/19 08:12:53;;;;;;;2.83;2.70;;;24.40;69.70;;;;;;5066854;28;44003;-70
2022/06/19 08:15:21;;;;;;;2.83;2.73;;;24.60;69.20;;;;;;5065820;28;43864;-70
2022/06/19 08:17:49;;;;;;;2.53;2.43;;;24.70;68.70;;;;;;5064877;28;46478;-70
2022/06/19 08:20:17;;;;;;;2.63;2.57;;;24.90;68.30;;;;;;5065338;28;44257;-70
2022/06/19 08:22:45;;;;;;;2.40;2.33;;;25.00;67.90;;;;;;5066811;28;43293;-71
2022/06/19 08:25:15;;;;;;;2.90;2.80;;;25.10;67.50;;;;;;5065957;28;43869;-71
2022/06/19 08:27:47;;;;;;;2.40;2.40;;;25.10;67.20;;;;;;5065751;28;46248;-71
2022/06/19 08:30:16;;;;;;;2.27;2.27;;;25.10;67.40;;;;;;5066655;28;43979;-71
2022/06/19 08:32:44;;;;;;;2.47;2.40;;;24.90;67.70;;;;;;5066493;28;43968;-71
2022/06/19 08:35:12;;;;;;;2.30;2.30;;;24.70;68.00;;;;;;5067140;28;43336;-71
2022/06/19 08:37:40;;;;;;;2.20;2.20;;;24.50;68.60;;;;;;5066625;28;43743;-70
2022/06/19 08:40:15;;;;;;;2.30;2.30;;;24.40;69.10;;;;;;5066488;28;43960;-70
2022/06/19 08:42:49;;;;;;;2.33;2.33;;;24.30;69.50;;;;;;5069703;28;43983;-70
2022/06/19 08:45:34;;;;;;;2.20;2.20;;;24.20;69.70;;;;;;5070562;28;43411;-71
2022/06/19 08:48:11;;;;;;;2.37;2.27;;;24.10;70.00;;;;;;5063146;28;43979;-71
2022/06/19 08:50:42;;;;;;;2.20;2.20;;;24.00;70.30;;;;;;5070102;28;43928;-70
2022/06/19 08:53:19;;;;;;;2.50;2.40;;;24.00;70.40;;;;;;5070183;28;43994;-70
2022/06/19 08:55:51;;;;;;;2.23;2.23;;;23.90;70.50;;;;;;5070323;28;43956;-71
2022/06/19 08:58:25;;;;;;;2.37;2.37;;;23.90;70.70;;;;;;5069792;28;43904;-70
2022/06/19 09:00:57;;;;;;;2.30;2.30;;;23.90;70.80;;;;;;5069879;28;43890;-70
2022/06/19 09:06:36;;;;;;;2.40;2.40;;;23.80;70.90;;;;;;5052124;28;44020;-71
2022/06/19 09:09:21;;;;;;;2.03;2.03;;;23.80;71.00;;;;;;5069847;28;43602;-71
2022/06/19 09:12:00;;;;;;;2.17;2.17;;;23.80;71.40;;;;;;5069611;28;44099;-71
2022/06/19 09:14:36;;;;;;;2.40;2.30;;;23.80;71.70;;;;;;5069244;28;43399;-70
2022/06/19 09:17:10;;;;;;;2.20;2.20;;;23.90;70.20;;;;;;5070195;28;43388;-71
2022/06/19 09:19:48;;;;;;;3.27;2.20;;;24.10;70.00;;;;;;5069545;28;43618;-71
2022/06/19 09:22:33;;;;;;;2.47;2.37;;;24.30;69.60;;;;;;5069599;28;44004;-70
2022/06/19 09:25:12;;;;;;;2.93;2.27;;;24.50;69.00;;;;;;5069710;28;44058;-70
2022/06/19 09:27:42;;;;;;;2.07;2.07;;;24.70;68.50;;;;;;5069850;28;43346;-70
2022/06/19 09:30:14;;;;;;;2.53;2.33;;;24.80;67.90;;;;;;5069464;28;44070;-71
2022/06/19 09:32:43;;;;;;;2.60;2.30;;;25.00;67.70;;;;;;5069263;28;44018;-70
2022/06/19 09:35:33;;;;;;;2.50;2.30;;;25.10;67.20;;;;;;5068063;28;43402;-71
2022/06/19 09:38:06;;;;;;;2.20;2.10;;;25.30;66.90;;;;;;5069854;28;43937;-71
2022/06/19 09:40:35;;;;;;;2.33;2.20;;;25.30;66.70;;;;;;5069170;28;43924;-70
2022/06/19 09:43:07;;;;;;;2.30;2.30;;;25.40;66.60;;;;;;5069042;28;43369;-71
2022/06/19 09:45:37;;;;;;;2.40;2.30;;;25.40;66.40;;;;;;5061441;28;43942;-71
2022/06/19 09:48:07;;;;;;;2.40;2.30;;;25.50;66.30;;;;;;5063134;28;44122;-71
2022/06/19 09:50:43;;;;;;;2.58;2.20;;;25.50;66.20;;;;;;5069071;28;43793;-71
2022/06/19 09:53:11;;;;;;;2.30;2.20;;;25.60;65.90;;;;;;5068189;28;43872;-71
2022/06/19 09:55:40;;;;;;;2.20;2.10;;;25.60;65.60;;;;;;5068826;28;43955;-70
2022/06/19 09:58:12;;;;;;;3.20;2.20;;;25.50;66.10;;;;;;5069078;28;44232;-70
2022/06/19 10:00:42;;;;;;;2.37;2.37;;;25.30;66.30;;;;;;5068744;28;43926;-71
2022/06/19 10:03:25;;;;;;;2.00;2.00;;;25.10;66.90;;;;;;5068743;28;43990;-72
2022/06/19 10:05:55;;;;;;;2.30;2.20;;;24.90;67.50;;;;;;5067445;28;43408;-72
2022/06/19 10:08:25;;;;;;;2.30;2.17;;;24.70;68.10;;;;;;5069287;28;44054;-70
2022/06/19 10:10:54;;;;;;;2.30;2.20;;;24.50;68.60;;;;;;5068386;28;44121;-70
2022/06/19 10:13:25;;;;;;;1.90;1.90;;;24.40;69.00;;;;;;5068644;28;43938;-70
2022/06/19 10:15:56;;;;;;;2.20;2.20;;;24.30;69.30;;;;;;5068174;28;44006;-71
2022/06/19 10:18:27;;;;;;;2.10;2.10;;;24.30;69.60;;;;;;5069233;28;43954;-71
2022/06/19 10:20:57;;;;;;;2.20;2.10;;;24.20;69.80;;;;;;5062066;28;43919;-71
2022/06/19 10:23:30;;;;;;;2.00;2.00;;;24.10;70.10;;;;;;5062490;28;43961;-71
2022/06/19 10:26:12;;;;;;;2.30;2.20;;;24.10;70.50;;;;;;5068516;28;43779;-70
2022/06/19 10:28:55;;;;;;;1.90;1.90;;;24.30;70.50;;;;;;5069064;28;43982;-71
2022/06/19 10:31:32;;;;;;;2.30;2.20;;;24.40;70.00;;;;;;5068513;28;45135;-70
2022/06/19 10:34:03;;;;;;;1.97;1.87;;;24.50;69.30;;;;;;5068256;28;43857;-71
2022/06/19 10:36:34;;;;;;;2.17;2.17;;;24.70;68.80;;;;;;5068689;28;43968;-70
2022/06/19 10:39:22;;;;;;;2.10;2.10;;;24.90;68.50;;;;;;5063707;28;43983;-70
2022/06/19 10:42:04;;;;;;;2.23;2.07;;;25.00;68.00;;;;;;5068058;28;43602;-70
2022/06/19 10:45:01;;;;;;;2.10;2.10;;;25.10;67.70;;;;;;5068474;28;44087;-72
2022/06/19 10:47:38;;;;;;;1.90;1.80;;;25.20;67.30;;;;;;5054893;28;43976;-71
2022/06/19 10:50:10;;;;;;;2.30;2.13;;;25.30;67.80;;;;;;5068728;28;43933;-70
2022/06/19 10:52:50;;;;;;;2.15;2.05;;;25.30;66.90;;;;;;5068131;28;43954;-71
2022/06/19 10:55:25;;;;;;;2.10;2.00;;;25.40;66.70;;;;;;5067878;28;44069;-71
2022/06/19 10:58:04;;;;;;;1.97;1.90;;;25.50;66.40;;;;;;5067924;28;44093;-70
2022/06/19 11:00:32;;;;;;;2.08;1.98;;;25.60;66.10;;;;;;5068410;28;43364;-71
2022/06/19 11:05:51;;;;;;;2.30;2.20;;;25.50;66.10;;;;;;5034314;28;46013;-71
2022/06/19 11:08:20;;;;;;;2.13;2.10;;;25.30;66.60;;;;;;5067861;28;43932;-70
2022/06/19 11:10:50;;;;;;;2.20;2.10;;;25.10;67.10;;;;;;5068009;28;43995;-71
2022/06/19 11:13:18;;;;;;;2.50;2.40;;;25.00;67.90;;;;;;5067627;28;43889;-72
2022/06/19 11:15:48;;;;;;;2.20;2.20;;;24.80;68.70;;;;;;5066043;28;45137;-71
2022/06/19 11:18:22;;;;;;;2.00;2.00;;;24.70;69.10;;;;;;5067716;28;44039;-71
2022/06/19 11:21:00;;;;;;;2.40;2.30;;;24.50;69.40;;;;;;5067953;28;43372;-71
2022/06/19 11:23:31;;;;;;;2.57;2.40;;;24.50;69.80;;;;;;5061531;28;44822;-71
2022/06/19 11:26:01;;;;;;;2.20;2.20;;;24.40;70.00;;;;;;5067508;28;44100;-71
2022/06/19 11:28:49;;;;;;;2.07;2.07;;;24.30;70.20;;;;;;5067713;28;43319;-70
2022/06/19 11:31:19;;;;;;;2.17;2.17;;;24.30;70.40;;;;;;5068045;28;43390;-71
2022/06/19 11:33:50;;;;;;;1.93;1.93;;;24.20;70.70;;;;;;5067505;28;44006;-70
2022/06/19 11:36:29;;;;;;;2.03;2.03;;;24.30;70.60;;;;;;5067313;28;44026;-71
2022/06/19 11:38:57;;;;;;;2.20;2.20;;;24.40;70.20;;;;;;5067380;28;44266;-71
2022/06/19 11:41:31;;;;;;;1.90;1.83;;;24.60;69.70;;;;;;5067642;28;44194;-70
2022/06/19 11:44:06;;;;;;;1.95;1.95;;;24.80;69.20;;;;;;5067199;28;45128;-72
2022/06/19 11:46:44;;;;;;;2.17;2.17;;;24.90;68.60;;;;;;5067410;28;43919;-71
2022/06/19 11:49:30;;;;;;;2.10;2.10;;;25.10;68.20;;;;;;5067056;28;43935;-70
2022/06/19 11:52:05;;;;;;;2.10;2.10;;;25.20;67.80;;;;;;5067622;28;43931;-70
2022/06/19 11:54:35;;;;;;;2.30;2.30;;;25.30;67.50;;;;;;5067370;28;44012;-72
2022/06/19 11:57:04;;;;;;;2.20;2.10;;;25.30;67.20;;;;;;5067246;28;43772;-71
2022/06/19 11:59:44;;;;;;;2.03;2.03;;;25.40;67.00;;;;;;5067375;28;43911;-70
2022/06/19 12:02:24;;;;;;;2.15;2.15;;;25.50;66.60;;;;;;5067209;28;43947;-71
2022/06/19 12:04:54;;;;;;;2.40;2.40;;;25.60;66.30;;;;;;5066967;28;43744;-71
2022/06/19 12:07:24;;;;;;;3.38;2.53;;;25.70;66.00;;;;;;5066900;28;44035;-72
2022/06/19 12:09:57;;;;;;;2.60;2.50;;;25.60;65.90;;;;;;5066602;28;43355;-70
2022/06/19 12:12:25;;;;;;;2.47;2.30;;;25.50;66.20;;;;;;5067282;28;44003;-71
2022/06/19 12:14:56;;;;;;;3.07;2.23;;;25.30;66.70;;;;;;5066337;28;44064;-71
2022/06/19 12:17:26;;;;;;;2.20;2.20;;;25.10;67.30;;;;;;5066260;28;44068;-70
2022/06/19 12:20:01;;;;;;;2.80;2.70;;;24.90;67.90;;;;;;5066841;28;43966;-70
2022/06/19 12:22:35;;;;;;;2.60;2.50;;;24.80;68.60;;;;;;5067063;28;44019;-70
2022/06/19 12:25:08;;;;;;;2.70;2.50;;;24.70;69.10;;;;;;5060269;28;44935;-71
2022/06/19 12:27:40;;;;;;;2.23;2.23;;;24.50;69.40;;;;;;5066749;28;43930;-70
2022/06/19 12:30:13;;;;;;;2.60;2.40;;;24.50;69.80;;;;;;5066827;28;43430;-70
2022/06/19 12:32:43;;;;;;;2.47;2.37;;;24.40;70.00;;;;;;5067061;28;43878;-71
2022/06/19 12:35:17;;;;;;;2.87;2.77;;;24.30;70.20;;;;;;5066645;28;44365;-71
2022/06/19 12:37:45;;;;;;;2.30;2.30;;;24.30;70.50;;;;;;5066543;28;43989;-70
2022/06/19 12:40:15;;;;;;;2.40;2.30;;;24.20;70.80;;;;;;5066694;28;43925;-71
2022/06/19 12:42:46;;;;;;;2.67;2.57;;;24.30;71.00;;;;;;5067013;28;43959;-70
2022/06/19 12:45:20;;;;;;;3.97;2.43;;;24.40;70.70;;;;;;5066473;28;43928;-70
2022/06/19 12:47:51;;;;;;;2.50;2.40;;;24.50;70.20;;;;;;5066253;28;43886;-71
2022/06/19 12:50:29;;;;;;;2.60;2.40;;;24.70;69.70;;;;;;5066533;28;43959;-71
2022/06/19 12:53:03;;;;;;;2.10;2.10;;;24.80;69.10;;;;;;5066745;28;43837;-70
2022/06/19 12:55:42;;;;;;;2.40;2.30;;;25.00;68.70;;;;;;5066324;28;45031;-71
2022/06/19 12:58:45;;;;;;;3.60;2.30;;;25.10;68.20;;;;;;5064545;28;46212;-70
2022/06/19 13:01:16;;;;;;;2.77;2.57;;;25.20;67.90;;;;;;5055009;28;43949;-71
2022/06/19 13:04:09;;;;;;;2.90;2.67;;;25.30;67.50;;;;;;5060629;28;44112;-70
2022/06/19 13:07:03;;;;;;;2.67;2.57;;;25.40;67.30;;;;;;5064746;28;45801;-70
2022/06/19 13:09:44;;;;;;;2.50;2.40;;;25.50;67.10;;;;;;5064579;28;46360;-70
2022/06/19 13:12:16;;;;;;;2.60;2.50;;;25.50;66.70;;;;;;5066243;28;43938;-70
2022/06/19 13:15:03;;;;;;;2.95;2.85;;;25.50;66.60;;;;;;5066034;28;44034;-71
2022/06/19 13:17:33;;;;;;;3.15;2.42;;;25.50;66.80;;;;;;5066109;28;43974;-71